Time;durP1;ratioP1;P1;durP2;ratioP2;P2;SDS_P1;SDS_P2;PMS_P1;PMS_P2;Temp;Humidity;BMP_temperature;BMP_pressure;BME280_temperature;BME280_humidity;BME280_pressure;Samples;Min_cycle;Max_cycle;Signal;HPM_P1;HPM_P2
2023/07/26 00:02:35;;;;;;;9.88;4.55;;;24.20;67.70;;;;;;6121200;28;80727;-60
2023/07/26 00:05:35;;;;;;;8.20;4.22;;;24.30;67.50;;;;;;6102286;28;81969;-59
2023/07/26 00:08:36;;;;;;;6.07;4.03;;;24.40;67.10;;;;;;6104843;28;80410;-61
2023/07/26 00:11:36;;;;;;;4.88;3.65;;;24.40;67.30;;;;;;6112699;28;81916;-61
2023/07/26 00:14:37;;;;;;;6.13;4.18;;;24.50;67.10;;;;;;6118513;28;80240;-61
2023/07/26 00:17:38;;;;;;;6.43;3.92;;;24.60;66.70;;;;;;6122184;28;81011;-61
2023/07/26 00:20:38;;;;;;;5.10;3.85;;;24.60;66.60;;;;;;6111552;28;82231;-62
2023/07/26 00:23:39;;;;;;;7.65;3.80;;;24.60;66.20;;;;;;6118580;28;80322;-62
2023/07/26 00:26:39;;;;;;;5.35;3.72;;;24.60;66.10;;;;;;6122250;28;82289;-62
2023/07/26 00:29:40;;;;;;;4.97;3.75;;;24.60;66.10;;;;;;6129741;28;80370;-64
2023/07/26 00:32:40;;;;;;;5.20;3.15;;;24.60;66.00;;;;;;6124608;28;82036;-63
2023/07/26 00:35:41;;;;;;;5.47;3.10;;;24.60;66.70;;;;;;6128978;28;80808;-62
2023/07/26 00:38:41;;;;;;;5.35;3.53;;;24.70;66.10;;;;;;6128606;28;80844;-62
2023/07/26 00:41:42;;;;;;;5.38;3.60;;;24.70;65.80;;;;;;6119294;28;82383;-66
2023/07/26 00:44:43;;;;;;;6.18;4.03;;;24.70;65.80;;;;;;6125039;28;82261;-65
2023/07/26 00:47:43;;;;;;;5.20;3.70;;;24.70;65.70;;;;;;6120111;28;80348;-65
2023/07/26 00:50:46;;;;;;;4.95;3.97;;;24.60;65.80;;;;;;6139865;28;88232;-65
2023/07/26 00:53:46;;;;;;;6.65;3.95;;;24.70;65.90;;;;;;6128059;28;81714;-65
2023/07/26 00:56:47;;;;;;;5.03;3.50;;;24.70;65.90;;;;;;6139722;28;80470;-65
2023/07/26 00:59:48;;;;;;;5.82;3.60;;;24.80;65.90;;;;;;6139611;28;80249;-61
2023/07/26 01:02:48;;;;;;;4.57;3.33;;;24.80;65.70;;;;;;6124091;28;82643;-59
2023/07/26 01:05:50;;;;;;;8.00;3.88;;;24.80;65.80;;;;;;6114573;28;80837;-60
2023/07/26 01:08:50;;;;;;;5.60;3.28;;;24.90;65.70;;;;;;6131506;28;81271;-60
2023/07/26 01:11:51;;;;;;;5.68;3.10;;;24.90;65.60;;;;;;6125939;28;83072;-59
2023/07/26 01:14:51;;;;;;;5.80;3.28;;;25.00;65.60;;;;;;6092518;28;82223;-59
2023/07/26 01:17:52;;;;;;;5.07;3.50;;;25.00;65.60;;;;;;6110844;28;82276;-60
2023/07/26 01:20:52;;;;;;;5.32;3.20;;;24.90;65.80;;;;;;6116240;28;80786;-61
2023/07/26 01:23:53;;;;;;;7.10;3.60;;;24.80;65.90;;;;;;6110896;28;82761;-62
2023/07/26 01:26:54;;;;;;;5.03;3.20;;;24.80;66.00;;;;;;6124455;28;82190;-61
2023/07/26 01:29:56;;;;;;;5.00;3.40;;;24.80;66.20;;;;;;6119051;28;82241;-60
2023/07/26 01:32:57;;;;;;;8.27;3.95;;;24.80;66.20;;;;;;6125841;28;81977;-59
2023/07/26 01:35:57;;;;;;;5.78;3.53;;;24.80;66.30;;;;;;6105145;28;83733;-59
2023/07/26 01:39:00;;;;;;;7.80;3.83;;;24.80;66.30;;;;;;6107652;28;82786;-59
2023/07/26 01:42:01;;;;;;;6.20;3.70;;;24.70;66.10;;;;;;6124134;28;87603;-59
2023/07/26 01:45:01;;;;;;;9.68;3.83;;;24.70;66.20;;;;;;6111970;28;80577;-58
2023/07/26 01:48:02;;;;;;;5.25;3.55;;;24.70;66.00;;;;;;6124871;28;80519;-59
2023/07/26 01:51:02;;;;;;;5.88;3.28;;;24.70;65.90;;;;;;6119348;28;80395;-60
2023/07/26 01:54:04;;;;;;;7.85;4.18;;;24.60;66.00;;;;;;6118511;28;80811;-59
2023/07/26 01:57:04;;;;;;;4.85;3.50;;;24.60;66.30;;;;;;6120152;28;80966;-59
2023/07/26 02:00:05;;;;;;;5.05;3.30;;;24.60;66.30;;;;;;6128891;28;83255;-60
2023/07/26 02:03:13;;;;;;;8.35;3.30;;;24.60;66.40;;;;;;6124473;28;80598;-60
2023/07/26 02:06:14;;;;;;;5.72;3.42;;;24.70;66.40;;;;;;6107581;28;82446;-59
2023/07/26 02:09:14;;;;;;;4.45;3.28;;;24.70;66.20;;;;;;6132956;28;83653;-59
2023/07/26 02:12:15;;;;;;;4.93;3.17;;;24.80;66.50;;;;;;6100768;28;83256;-61
2023/07/26 02:15:16;;;;;;;6.60;3.92;;;24.80;66.20;;;;;;6133394;28;82054;-61
2023/07/26 02:18:16;;;;;;;4.57;3.17;;;24.90;66.20;;;;;;6109736;28;82600;-61
2023/07/26 02:21:17;;;;;;;5.38;3.70;;;24.90;66.10;;;;;;6126981;28;80800;-61
2023/07/26 02:24:18;;;;;;;4.40;3.25;;;25.00;66.00;;;;;;6135182;28;82843;-60
2023/07/26 02:27:19;;;;;;;7.53;3.10;;;25.00;65.90;;;;;;6113693;28;82987;-61
2023/07/26 02:30:19;;;;;;;4.28;3.40;;;25.00;65.90;;;;;;6127163;28;83669;-61
2023/07/26 02:33:20;;;;;;;3.95;3.30;;;25.00;65.80;;;;;;6133345;28;82368;-62
2023/07/26 02:36:21;;;;;;;4.80;3.30;;;25.00;65.90;;;;;;6125085;28;84727;-62
2023/07/26 02:39:21;;;;;;;8.20;3.38;;;25.00;66.00;;;;;;6119098;28;80603;-64
2023/07/26 02:42:22;;;;;;;8.05;3.85;;;25.00;65.80;;;;;;6127238;28;81746;-63
2023/07/26 02:45:24;;;;;;;5.30;3.60;;;25.00;65.80;;;;;;6111001;28;80763;-63
2023/07/26 02:48:25;;;;;;;6.70;3.45;;;25.00;65.90;;;;;;6106499;28;82041;-59
2023/07/26 02:51:27;;;;;;;7.68;3.10;;;24.90;65.90;;;;;;6122200;28;81798;-60
2023/07/26 02:54:28;;;;;;;6.32;3.20;;;24.90;66.00;;;;;;6096462;28;81567;-58
2023/07/26 02:57:28;;;;;;;4.57;3.17;;;25.00;66.60;;;;;;6104344;28;83261;-62
2023/07/26 03:00:29;;;;;;;5.82;3.00;;;25.00;66.10;;;;;;6095550;28;82470;-61
2023/07/26 03:03:29;;;;;;;7.60;3.75;;;25.00;66.20;;;;;;6109502;28;81038;-60
2023/07/26 03:06:30;;;;;;;8.13;3.55;;;25.00;66.00;;;;;;6105864;28;80910;-59
2023/07/26 03:09:31;;;;;;;5.45;4.00;;;25.00;65.70;;;;;;6095607;28;83383;-60
2023/07/26 03:12:31;;;;;;;6.15;3.60;;;25.00;66.00;;;;;;6105716;28;80449;-60
2023/07/26 03:15:32;;;;;;;7.60;3.65;;;24.90;65.80;;;;;;6098221;28;81839;-60
2023/07/26 03:18:33;;;;;;;6.80;3.80;;;25.00;66.00;;;;;;6116898;28;81198;-59
2023/07/26 03:21:33;;;;;;;5.28;3.72;;;25.00;66.10;;;;;;6106002;28;82239;-59
2023/07/26 03:24:34;;;;;;;6.63;3.42;;;25.00;65.90;;;;;;6105760;28;81791;-60
2023/07/26 03:27:34;;;;;;;7.20;3.55;;;25.00;65.80;;;;;;6122291;28;81764;-60
2023/07/26 03:30:35;;;;;;;8.02;3.72;;;25.00;65.80;;;;;;6101604;28;82113;-60
2023/07/26 03:33:35;;;;;;;7.90;4.78;;;25.00;65.90;;;;;;6127778;28;81143;-59
2023/07/26 03:36:36;;;;;;;5.10;3.67;;;25.00;65.90;;;;;;6117804;28;80386;-59
2023/07/26 03:39:36;;;;;;;5.28;3.33;;;24.90;65.90;;;;;;6127554;28;80701;-60
2023/07/26 03:42:37;;;;;;;6.25;3.40;;;24.90;66.10;;;;;;6118036;28;81478;-60
2023/07/26 03:45:38;;;;;;;6.63;4.10;;;24.90;66.20;;;;;;6111798;28;82708;-59
2023/07/26 03:48:38;;;;;;;10.68;3.90;;;24.90;66.20;;;;;;6120499;28;80574;-60
2023/07/26 03:51:39;;;;;;;5.95;3.53;;;24.90;66.20;;;;;;6105624;28;82762;-60
2023/07/26 03:54:39;;;;;;;5.47;3.55;;;24.90;66.60;;;;;;6124340;28;83170;-60
2023/07/26 03:57:40;;;;;;;4.90;3.50;;;24.90;66.70;;;;;;6127528;28;80166;-60
2023/07/26 04:00:40;;;;;;;6.70;3.85;;;24.90;66.50;;;;;;6126373;28;80555;-60
2023/07/26 04:03:43;;;;;;;5.53;3.50;;;25.00;66.50;;;;;;6112476;28;82567;-59
2023/07/26 04:06:44;;;;;;;6.13;3.53;;;25.00;66.70;;;;;;6125183;28;82257;-61
2023/07/26 04:09:45;;;;;;;7.28;4.20;;;25.00;66.50;;;;;;6122472;28;83404;-59
2023/07/26 04:12:45;;;;;;;6.93;4.03;;;24.90;66.40;;;;;;6110665;28;82026;-62
2023/07/26 04:15:46;;;;;;;5.70;3.60;;;24.90;66.70;;;;;;6126022;28;80636;-59
2023/07/26 04:18:46;;;;;;;5.97;3.92;;;25.00;67.00;;;;;;6090544;28;81317;-60
2023/07/26 04:21:47;;;;;;;4.43;3.40;;;25.00;66.60;;;;;;6106757;28;85229;-61
2023/07/26 04:24:47;;;;;;;6.60;3.60;;;25.00;66.60;;;;;;6101690;28;82433;-67
2023/07/26 04:27:49;;;;;;;8.98;4.18;;;25.00;66.70;;;;;;6116730;28;80503;-69
2023/07/26 04:30:49;;;;;;;6.53;3.75;;;25.00;66.90;;;;;;6117960;28;80779;-70
2023/07/26 04:33:50;;;;;;;5.82;4.32;;;25.00;67.10;;;;;;6120255;28;80527;-69
2023/07/26 04:36:50;;;;;;;7.45;4.90;;;25.00;67.00;;;;;;6138323;28;81201;-72
2023/07/26 04:39:51;;;;;;;9.38;4.93;;;24.90;67.20;;;;;;6130021;28;81742;-57
2023/07/26 04:42:52;;;;;;;17.38;7.00;;;24.90;67.10;;;;;;6125582;28;80898;-62
2023/07/26 04:45:52;;;;;;;9.35;5.25;;;24.90;68.10;;;;;;6096259;28;83122;-62
2023/07/26 04:48:53;;;;;;;9.73;5.13;;;24.90;67.80;;;;;;6102150;28;81548;-61
2023/07/26 04:51:53;;;;;;;8.18;4.65;;;25.00;67.70;;;;;;6106676;28;83167;-61
2023/07/26 04:54:54;;;;;;;10.82;5.32;;;25.00;67.70;;;;;;6105786;28;80369;-59
2023/07/26 04:57:55;;;;;;;9.77;5.82;;;25.10;67.90;;;;;;6120802;28;80767;-67
2023/07/26 05:00:55;;;;;;;18.33;6.22;;;25.00;67.80;;;;;;6116808;28;80618;-65
2023/07/26 05:03:56;;;;;;;9.48;5.78;;;25.00;67.50;;;;;;6120735;28;81531;-59
2023/07/26 05:06:56;;;;;;;8.02;5.35;;;25.00;67.40;;;;;;6097951;28;82458;-61
2023/07/26 05:09:58;;;;;;;11.35;5.25;;;25.00;67.00;;;;;;6107724;28;80328;-66
2023/07/26 05:12:59;;;;;;;12.55;5.28;;;24.90;67.30;;;;;;6116165;28;81842;-62
2023/07/26 05:15:59;;;;;;;6.35;4.93;;;24.90;67.50;;;;;;6107584;28;80448;-63
2023/07/26 05:19:00;;;;;;;9.68;5.07;;;24.90;67.60;;;;;;6108475;28;80459;-70
2023/07/26 05:22:00;;;;;;;6.97;5.32;;;24.90;67.70;;;;;;6120556;28;80710;-66
2023/07/26 05:25:01;;;;;;;9.32;4.40;;;25.00;68.10;;;;;;6118505;28;81159;-65
2023/07/26 05:28:01;;;;;;;10.48;4.80;;;25.00;68.00;;;;;;6115742;28;82753;-69
2023/07/26 05:31:02;;;;;;;8.10;5.35;;;25.10;68.10;;;;;;6117801;28;81689;-71
2023/07/26 05:34:03;;;;;;;9.43;5.72;;;25.10;68.10;;;;;;6127666;28;80705;-69
2023/07/26 05:37:03;;;;;;;12.02;5.72;;;25.10;67.90;;;;;;6109642;28;82763;-70
2023/07/26 05:40:05;;;;;;;8.68;5.35;;;25.20;67.90;;;;;;6119145;28;81240;-74
2023/07/26 05:43:05;;;;;;;9.00;5.18;;;25.20;67.90;;;;;;6098333;28;80809;-71
2023/07/26 05:46:07;;;;;;;16.77;6.10;;;25.20;67.50;;;;;;6107163;28;80902;-68
2023/07/26 05:49:09;;;;;;;12.95;6.63;;;25.30;67.80;;;;;;6103901;28;80574;-64
2023/07/26 05:52:10;;;;;;;11.18;6.07;;;25.30;67.90;;;;;;6105609;28;80919;-63
2023/07/26 05:55:11;;;;;;;11.65;7.20;;;25.30;67.70;;;;;;6111158;28;80534;-62
2023/07/26 05:58:12;;;;;;;11.25;6.55;;;25.30;68.00;;;;;;6115639;28;80607;-65
2023/07/26 06:01:13;;;;;;;11.95;6.55;;;25.30;67.90;;;;;;6126609;28;82336;-63
2023/07/26 06:04:13;;;;;;;11.25;6.95;;;25.30;67.80;;;;;;6067055;28;82473;-65
2023/07/26 06:07:14;;;;;;;12.45;7.85;;;25.30;67.80;;;;;;6127878;28;80523;-61
2023/07/26 06:10:15;;;;;;;20.05;9.68;;;25.30;67.70;;;;;;6117823;28;83392;-61
2023/07/26 06:13:15;;;;;;;22.75;9.73;;;25.30;68.50;;;;;;6128270;28;80447;-66
2023/07/26 06:16:16;;;;;;;24.05;11.30;;;25.40;67.80;;;;;;6130386;28;81563;-63
2023/07/26 06:19:17;;;;;;;23.27;11.75;;;25.40;68.20;;;;;;6112003;28;84420;-59
2023/07/26 06:22:17;;;;;;;25.67;12.13;;;25.40;68.20;;;;;;6125598;28;83541;-60
2023/07/26 06:25:18;;;;;;;21.70;10.90;;;25.40;68.20;;;;;;6116913;28;84456;-60
2023/07/26 06:28:18;;;;;;;17.70;10.27;;;25.40;68.50;;;;;;6120100;28;88791;-64
2023/07/26 06:31:19;;;;;;;23.30;10.13;;;25.40;68.50;;;;;;6110275;28;83042;-69
2023/07/26 06:34:19;;;;;;;13.45;8.85;;;25.50;68.50;;;;;;6120649;28;83063;-72
2023/07/26 06:37:20;;;;;;;22.48;10.40;;;25.40;68.50;;;;;;6136096;28;82950;-67
2023/07/26 06:40:20;;;;;;;21.27;10.25;;;25.40;68.40;;;;;;6114911;28;84340;-73
2023/07/26 06:43:21;;;;;;;15.85;9.30;;;25.40;68.70;;;;;;6126142;28;90501;-61
2023/07/26 06:46:21;;;;;;;14.07;8.35;;;25.50;69.30;;;;;;6107506;28;83037;-61
2023/07/26 06:49:22;;;;;;;15.00;9.13;;;25.50;68.40;;;;;;6125508;28;81202;-61
2023/07/26 06:52:22;;;;;;;17.25;8.77;;;25.50;68.60;;;;;;6130617;28;80702;-62
2023/07/26 06:55:23;;;;;;;37.70;10.40;;;25.50;68.80;;;;;;6123633;28;80350;-61
2023/07/26 06:58:24;;;;;;;15.27;9.10;;;25.50;68.80;;;;;;6124638;28;83262;-62
2023/07/26 07:01:24;;;;;;;23.63;9.57;;;25.50;68.70;;;;;;6109909;28;82886;-61
2023/07/26 07:04:25;;;;;;;15.98;9.48;;;25.50;68.90;;;;;;6114771;28;82235;-61
2023/07/26 07:07:25;;;;;;;21.58;9.55;;;25.50;68.80;;;;;;6125371;28;82755;-60
2023/07/26 07:10:26;;;;;;;18.08;10.07;;;25.50;68.20;;;;;;6125687;28;81943;-59
2023/07/26 07:13:26;;;;;;;13.93;8.38;;;25.50;67.60;;;;;;6113658;28;84553;-60
2023/07/26 07:16:27;;;;;;;20.08;8.80;;;25.50;67.40;;;;;;6135291;28;83477;-60
2023/07/26 07:19:28;;;;;;;14.52;8.60;;;25.50;67.40;;;;;;6106178;28;81387;-59
2023/07/26 07:22:28;;;;;;;19.02;9.63;;;25.50;67.50;;;;;;6109272;28;82907;-60
2023/07/26 07:25:29;;;;;;;15.40;9.27;;;25.50;66.90;;;;;;6129452;28;80408;-62
2023/07/26 07:28:29;;;;;;;16.20;8.68;;;25.50;66.90;;;;;;6097221;28;81591;-62
2023/07/26 07:31:30;;;;;;;14.82;8.18;;;25.50;66.90;;;;;;6123993;28;81934;-64
2023/07/26 07:34:30;;;;;;;16.25;8.02;;;25.50;66.80;;;;;;6094966;28;81975;-63
2023/07/26 07:37:31;;;;;;;17.35;9.32;;;25.50;67.10;;;;;;6103879;28;80879;-62
2023/07/26 07:40:32;;;;;;;15.27;8.82;;;25.50;66.90;;;;;;6107048;28;80634;-64
2023/07/26 07:43:32;;;;;;;15.27;7.80;;;25.50;66.90;;;;;;6093551;28;81003;-63
2023/07/26 07:46:33;;;;;;;11.25;7.65;;;25.50;67.10;;;;;;6104718;28;80314;-63
2023/07/26 07:49:33;;;;;;;14.13;7.43;;;25.50;66.50;;;;;;6117982;28;81543;-63
2023/07/26 07:52:34;;;;;;;13.57;7.30;;;25.40;66.10;;;;;;6124811;28;80814;-61
2023/07/26 07:55:34;;;;;;;13.35;6.85;;;25.40;65.70;;;;;;6126443;28;81089;-63
2023/07/26 07:58:35;;;;;;;8.80;5.70;;;25.40;65.60;;;;;;6127810;28;80515;-63
2023/07/26 08:01:36;;;;;;;11.85;6.57;;;25.40;65.20;;;;;;6126228;28;81518;-64
2023/07/26 08:04:37;;;;;;;10.68;5.35;;;25.30;65.50;;;;;;6116214;28;80756;-63
2023/07/26 08:07:37;;;;;;;10.88;5.28;;;25.40;65.80;;;;;;6132623;28;81073;-60
2023/07/26 08:10:41;;;;;;;9.77;4.85;;;25.40;66.70;;;;;;6133211;28;80475;-65
2023/07/26 08:13:41;;;;;;;9.82;5.43;;;25.40;67.30;;;;;;6129226;28;80301;-65
2023/07/26 08:16:42;;;;;;;7.90;5.45;;;25.40;68.70;;;;;;6114714;28;82324;-61
2023/07/26 08:19:43;;;;;;;12.23;4.85;;;25.30;70.10;;;;;;6115456;28;82324;-61
2023/07/26 08:22:43;;;;;;;8.52;4.65;;;25.30;69.50;;;;;;6129182;28;80516;-61
2023/07/26 08:25:44;;;;;;;9.15;4.90;;;25.20;71.30;;;;;;6121132;28;83019;-60
2023/07/26 08:28:44;;;;;;;12.43;5.18;;;25.20;70.20;;;;;;6093293;28;88433;-63
2023/07/26 08:31:45;;;;;;;13.18;5.07;;;25.10;69.70;;;;;;6102045;28;82922;-59
2023/07/26 08:34:45;;;;;;;10.40;4.13;;;25.20;69.00;;;;;;6133222;28;81950;-63
2023/07/26 08:37:46;;;;;;;11.40;4.80;;;25.10;69.00;;;;;;6099878;28;82012;-61
2023/07/26 08:40:47;;;;;;;7.22;4.20;;;25.00;68.10;;;;;;6116040;28;80157;-62
2023/07/26 08:43:47;;;;;;;8.45;4.40;;;25.00;68.00;;;;;;6112339;28;81902;-61
2023/07/26 08:46:48;;;;;;;7.78;4.75;;;25.00;68.10;;;;;;6094875;28;81605;-60
2023/07/26 08:49:49;;;;;;;11.15;3.95;;;24.90;69.50;;;;;;6108244;28;84178;-63
2023/07/26 08:52:50;;;;;;;10.32;3.65;;;24.90;69.60;;;;;;6091331;28;85945;-61
2023/07/26 08:55:50;;;;;;;5.72;3.80;;;24.90;70.10;;;;;;6118089;28;83255;-61
2023/07/26 08:58:51;;;;;;;11.00;3.83;;;24.90;74.70;;;;;;6109011;28;81437;-58
2023/07/26 09:01:54;;;;;;;8.30;4.07;;;24.90;72.40;;;;;;6107260;28;80977;-59
2023/07/26 09:04:54;;;;;;;7.32;4.03;;;24.90;71.80;;;;;;6103272;28;85099;-60
2023/07/26 09:07:55;;;;;;;13.02;4.40;;;24.80;69.10;;;;;;6117131;28;82994;-61
2023/07/26 09:10:56;;;;;;;6.88;3.35;;;24.80;69.80;;;;;;6113595;28;81079;-60
2023/07/26 09:13:57;;;;;;;12.88;4.10;;;24.80;69.30;;;;;;6109964;28;84869;-61
2023/07/26 09:16:57;;;;;;;8.77;4.00;;;24.70;69.50;;;;;;6129477;28;86963;-59
2023/07/26 09:19:58;;;;;;;5.50;3.85;;;24.70;69.00;;;;;;6107444;28;83717;-58
2023/07/26 09:22:59;;;;;;;9.48;4.00;;;24.70;69.80;;;;;;6112362;28;83207;-62
2023/07/26 09:25:59;;;;;;;7.00;4.65;;;24.70;69.40;;;;;;6110599;28;80919;-59
2023/07/26 09:29:00;;;;;;;8.23;3.67;;;24.70;70.20;;;;;;6132256;28;82381;-60
2023/07/26 09:32:01;;;;;;;7.25;3.78;;;24.70;70.00;;;;;;6111434;28;80968;-65
2023/07/26 09:35:04;;;;;;;10.30;5.28;;;24.70;69.90;;;;;;6112197;28;82594;-64
2023/07/26 09:38:05;;;;;;;6.53;4.22;;;24.60;67.80;;;;;;6110795;28;80367;-64
2023/07/26 09:41:06;;;;;;;7.30;4.05;;;24.40;67.00;;;;;;6100060;28;80495;-63
2023/07/26 09:44:06;;;;;;;7.80;3.45;;;24.30;66.30;;;;;;6108067;28;83977;-65
2023/07/26 09:47:07;;;;;;;6.32;3.25;;;24.30;66.50;;;;;;6124205;28;80728;-65
2023/07/26 09:50:07;;;;;;;4.40;2.90;;;24.20;66.40;;;;;;6111850;28;80659;-62
2023/07/26 09:53:08;;;;;;;3.85;2.83;;;24.20;67.20;;;;;;6129014;28;81278;-64
2023/07/26 09:56:09;;;;;;;10.75;3.20;;;24.30;67.80;;;;;;6108942;28;82771;-63
2023/07/26 09:59:09;;;;;;;4.85;3.30;;;24.30;69.20;;;;;;6121243;28;80682;-63
2023/07/26 10:02:10;;;;;;;18.83;11.88;;;24.30;68.30;;;;;;6120369;28;83161;-65
2023/07/26 10:05:10;;;;;;;34.03;22.52;;;24.40;68.50;;;;;;6125893;28;83282;-62
2023/07/26 10:08:11;;;;;;;31.75;18.38;;;24.40;68.60;;;;;;6155610;28;88623;-60
2023/07/26 10:11:12;;;;;;;35.55;16.13;;;24.40;68.40;;;;;;6110027;28;85634;-65
2023/07/26 10:14:12;;;;;;;15.73;9.30;;;24.40;71.20;;;;;;6122517;28;83705;-62
2023/07/26 10:17:14;;;;;;;11.98;5.35;;;24.40;71.40;;;;;;6107949;28;83187;-64
2023/07/26 10:20:15;;;;;;;9.85;5.07;;;24.40;70.90;;;;;;6118035;28;80525;-61
2023/07/26 10:23:15;;;;;;;8.63;4.32;;;24.40;69.30;;;;;;6107310;28;82466;-61
2023/07/26 10:26:16;;;;;;;3.83;2.85;;;24.40;70.50;;;;;;6124359;28;81354;-61
2023/07/26 10:29:17;;;;;;;5.00;3.10;;;24.40;70.00;;;;;;6116441;28;81025;-61
2023/07/26 10:32:17;;;;;;;5.43;3.00;;;24.40;69.70;;;;;;6118381;28;82582;-61
2023/07/26 10:35:18;;;;;;;6.00;2.75;;;24.50;69.00;;;;;;6119063;28;80475;-61
2023/07/26 10:38:19;;;;;;;3.30;2.80;;;24.40;68.60;;;;;;6116906;28;82464;-60
2023/07/26 10:41:19;;;;;;;5.97;2.80;;;24.40;69.20;;;;;;6136330;28;80583;-61
2023/07/26 10:44:20;;;;;;;5.18;2.72;;;24.40;69.70;;;;;;6112249;28;80765;-60
2023/07/26 10:47:21;;;;;;;5.78;2.70;;;24.40;69.60;;;;;;6116121;28;81510;-60
2023/07/26 10:50:21;;;;;;;7.63;2.65;;;24.40;68.50;;;;;;6119891;28;81043;-60
2023/07/26 10:53:22;;;;;;;4.65;3.33;;;24.40;69.10;;;;;;6116458;28;82021;-60
2023/07/26 10:56:22;;;;;;;4.38;2.65;;;24.40;68.60;;;;;;6118475;28;80491;-59
2023/07/26 10:59:23;;;;;;;3.88;2.72;;;24.40;73.90;;;;;;6096577;28;82512;-57
2023/07/26 11:02:23;;;;;;;3.22;2.35;;;24.40;72.10;;;;;;6118515;28;83864;-59
2023/07/26 11:05:24;;;;;;;3.13;2.50;;;24.40;73.80;;;;;;6099326;28;81448;-66
2023/07/26 11:08:24;;;;;;;2.92;2.28;;;24.40;76.90;;;;;;6102526;28;81386;-63
2023/07/26 11:11:25;;;;;;;3.50;2.30;;;24.40;73.60;;;;;;6123902;28;80515;-71
2023/07/26 11:14:26;;;;;;;4.43;2.70;;;24.40;75.70;;;;;;6120796;28;81324;-68
2023/07/26 11:17:26;;;;;;;2.58;2.10;;;24.50;77.30;;;;;;6129939;28;80472;-72
2023/07/26 11:20:27;;;;;;;3.20;2.58;;;24.40;76.90;;;;;;6104908;28;81530;-71
2023/07/26 11:23:27;;;;;;;4.28;2.78;;;24.40;77.60;;;;;;6123462;28;81345;-70
2023/07/26 11:26:28;;;;;;;3.10;2.55;;;24.40;77.90;;;;;;6125340;28;80330;-73
2023/07/26 11:29:28;;;;;;;7.15;2.45;;;24.50;74.90;;;;;;6121824;28;80786;-71
2023/07/26 11:32:29;;;;;;;2.83;2.15;;;24.50;74.10;;;;;;6128667;28;81235;-70
2023/07/26 11:35:30;;;;;;;3.08;2.15;;;24.50;77.60;;;;;;6115169;28;81015;-61
2023/07/26 11:38:30;;;;;;;3.78;2.38;;;24.60;76.30;;;;;;6114627;28;81425;-66
2023/07/26 11:41:31;;;;;;;3.95;2.22;;;24.60;75.80;;;;;;6121352;28;83820;-60
2023/07/26 11:44:31;;;;;;;2.50;2.17;;;24.60;72.40;;;;;;6118045;28;82411;-59
2023/07/26 11:47:32;;;;;;;4.35;1.90;;;24.70;71.20;;;;;;6110084;28;82485;-60
2023/07/26 11:50:32;;;;;;;5.97;1.77;;;24.70;70.50;;;;;;6118366;28;80452;-59
2023/07/26 11:53:41;;;;;;;2.17;1.90;;;24.80;71.30;;;;;;6064041;28;82503;-60
2023/07/26 11:56:41;;;;;;;3.75;2.35;;;24.70;70.60;;;;;;6101092;28;81931;-59
2023/07/26 11:59:42;;;;;;;5.32;1.63;;;24.80;70.30;;;;;;6128711;28;80619;-60
2023/07/26 12:02:43;;;;;;;3.30;2.13;;;24.90;70.90;;;;;;6129614;28;81344;-59
2023/07/26 12:05:44;;;;;;;2.47;1.65;;;24.90;70.40;;;;;;6130536;28;81887;-57
2023/07/26 12:08:46;;;;;;;2.70;1.70;;;24.90;69.70;;;;;;6123564;28;80448;-57
2023/07/26 12:11:47;;;;;;;1.98;1.55;;;24.90;69.60;;;;;;6132145;28;82679;-58
2023/07/26 12:14:47;;;;;;;4.50;1.60;;;24.90;68.50;;;;;;6138473;28;81393;-60
2023/07/26 12:17:48;;;;;;;3.38;1.83;;;24.90;68.70;;;;;;6126960;28;83797;-59
2023/07/26 12:20:48;;;;;;;2.05;1.30;;;24.90;68.30;;;;;;6112713;28;80455;-59
2023/07/26 12:23:49;;;;;;;2.25;1.42;;;24.90;68.00;;;;;;6113481;28;81900;-60
2023/07/26 12:26:51;;;;;;;1.52;1.20;;;24.90;68.00;;;;;;6109802;28;80215;-60
2023/07/26 12:29:52;;;;;;;1.98;1.73;;;24.90;68.00;;;;;;6109284;28;82163;-59
2023/07/26 12:32:53;;;;;;;1.42;1.15;;;24.90;68.20;;;;;;6127146;28;80961;-59
2023/07/26 12:35:54;;;;;;;1.67;1.50;;;24.90;68.00;;;;;;6122077;28;81967;-56
2023/07/26 12:38:55;;;;;;;1.77;1.40;;;24.90;67.60;;;;;;6099951;28;81952;-58
2023/07/26 12:41:55;;;;;;;3.72;2.33;;;24.90;68.10;;;;;;6109965;28;80869;-59
2023/07/26 12:44:56;;;;;;;2.35;1.50;;;24.90;67.30;;;;;;6106307;28;81715;-58
2023/07/26 12:47:56;;;;;;;5.15;1.90;;;24.90;67.50;;;;;;6114849;28;81369;-59
2023/07/26 12:50:57;;;;;;;2.17;1.67;;;24.90;67.60;;;;;;6114851;28;83630;-59
2023/07/26 12:53:57;;;;;;;3.40;1.60;;;24.90;67.10;;;;;;6121841;28;80798;-59
2023/07/26 12:56:58;;;;;;;3.08;1.85;;;24.90;67.50;;;;;;6118362;28;80281;-59
2023/07/26 12:59:58;;;;;;;3.15;1.83;;;24.90;67.00;;;;;;6102408;28;82022;-60
2023/07/26 13:02:59;;;;;;;1.35;1.25;;;24.90;67.10;;;;;;6118154;28;81004;-58
2023/07/26 13:06:00;;;;;;;2.20;1.50;;;24.90;67.00;;;;;;6120470;28;82508;-60
2023/07/26 13:09:01;;;;;;;2.05;1.67;;;24.90;67.70;;;;;;6111549;28;80866;-60
2023/07/26 13:12:01;;;;;;;4.07;1.73;;;24.90;67.40;;;;;;6113271;28;81431;-60
2023/07/26 13:15:03;;;;;;;1.77;1.40;;;24.90;66.90;;;;;;6110387;28;81151;-60
2023/07/26 13:18:04;;;;;;;1.83;1.48;;;24.90;66.50;;;;;;6110463;28;81614;-58
2023/07/26 13:21:04;;;;;;;4.30;1.42;;;24.90;66.70;;;;;;6111311;28;82652;-58
2023/07/26 13:24:05;;;;;;;2.25;1.23;;;24.90;66.70;;;;;;6121109;28;80361;-60
2023/07/26 13:27:05;;;;;;;3.53;1.55;;;24.90;66.30;;;;;;6114768;28;83510;-59
2023/07/26 13:30:06;;;;;;;2.40;1.30;;;24.90;66.80;;;;;;6108881;28;80689;-59
2023/07/26 13:33:07;;;;;;;1.80;1.40;;;24.90;66.60;;;;;;6103890;28;83767;-64
2023/07/26 13:36:07;;;;;;;4.20;1.27;;;24.90;66.20;;;;;;6122916;28;81582;-63
2023/07/26 13:39:08;;;;;;;3.85;1.52;;;24.80;67.80;;;;;;6129133;28;80348;-64
2023/07/26 13:42:09;;;;;;;1.73;1.58;;;24.70;65.70;;;;;;6116305;28;80778;-64
2023/07/26 13:45:09;;;;;;;2.55;1.42;;;24.70;65.40;;;;;;6121124;28;80403;-65
2023/07/26 13:48:10;;;;;;;1.77;1.20;;;24.70;65.80;;;;;;6108473;28;82566;-65
2023/07/26 13:51:10;;;;;;;1.90;1.25;;;24.70;65.10;;;;;;6110447;28;80548;-60
2023/07/26 13:54:11;;;;;;;3.80;1.33;;;24.60;65.70;;;;;;6097751;28;82517;-59
2023/07/26 13:57:12;;;;;;;3.05;1.27;;;24.60;65.40;;;;;;6118858;28;80319;-59
2023/07/26 14:00:12;;;;;;;3.28;1.33;;;24.60;66.00;;;;;;6121703;28;81759;-59
2023/07/26 14:03:14;;;;;;;1.70;1.30;;;24.60;64.90;;;;;;6121298;28;81778;-59
2023/07/26 14:06:15;;;;;;;2.30;1.40;;;24.60;66.00;;;;;;6127631;28;82775;-60
2023/07/26 14:09:16;;;;;;;1.83;1.30;;;24.60;65.40;;;;;;6117416;28;82304;-61
2023/07/26 14:12:16;;;;;;;2.45;1.30;;;24.70;64.90;;;;;;6129716;28;80794;-60
2023/07/26 14:15:17;;;;;;;2.60;1.20;;;24.60;65.30;;;;;;6119497;28;82323;-59
2023/07/26 14:18:17;;;;;;;3.00;1.50;;;24.60;65.30;;;;;;6122328;28;80414;-59
2023/07/26 14:21:18;;;;;;;2.25;1.52;;;24.70;64.70;;;;;;6124999;28;80715;-60
2023/07/26 14:24:19;;;;;;;3.60;1.30;;;24.70;65.60;;;;;;6128264;28;82274;-61
2023/07/26 14:27:19;;;;;;;6.10;1.40;;;24.60;64.50;;;;;;6140260;28;80437;-59
2023/07/26 14:30:20;;;;;;;4.13;1.52;;;24.60;64.70;;;;;;6120514;28;81717;-60
2023/07/26 14:33:20;;;;;;;5.90;1.45;;;24.60;64.20;;;;;;6128848;28;80621;-60
2023/07/26 14:36:21;;;;;;;2.78;1.23;;;24.60;64.50;;;;;;6117237;28;81090;-60
2023/07/26 14:39:21;;;;;;;2.70;1.55;;;24.60;64.40;;;;;;6127357;28;81622;-59
2023/07/26 14:42:22;;;;;;;3.53;1.70;;;24.50;64.70;;;;;;6130583;28;80553;-59
2023/07/26 14:45:22;;;;;;;2.00;1.30;;;24.50;64.30;;;;;;6110915;28;80873;-68
2023/07/26 14:48:23;;;;;;;2.80;1.60;;;24.60;64.60;;;;;;6128764;28;80261;-68
2023/07/26 14:51:23;;;;;;;3.40;2.03;;;24.60;63.70;;;;;;6119370;28;81443;-68
2023/07/26 14:54:24;;;;;;;1.55;1.35;;;24.60;63.90;;;;;;6128740;28;80843;-69
2023/07/26 14:57:24;;;;;;;2.13;1.45;;;24.60;64.10;;;;;;6116738;28;80126;-69
2023/07/26 15:00:25;;;;;;;1.33;1.23;;;24.60;64.50;;;;;;6125681;28;80799;-72
2023/07/26 15:03:25;;;;;;;1.40;1.30;;;24.60;64.20;;;;;;6127092;28;80239;-67
2023/07/26 15:06:26;;;;;;;2.03;1.50;;;24.70;64.30;;;;;;6115440;28;82771;-74
2023/07/26 15:09:26;;;;;;;5.60;1.45;;;24.70;65.00;;;;;;6122881;28;81267;-70
2023/07/26 15:12:27;;;;;;;2.53;1.70;;;24.70;65.00;;;;;;6116130;28;82742;-65
2023/07/26 15:15:27;;;;;;;3.00;1.60;;;24.80;65.00;;;;;;6138576;28;85807;-68
2023/07/26 15:18:29;;;;;;;2.72;1.50;;;24.70;64.70;;;;;;6114838;28;82276;-72
2023/07/26 15:21:29;;;;;;;3.20;1.50;;;24.70;65.60;;;;;;6128930;28;82825;-61
2023/07/26 15:24:30;;;;;;;2.25;1.60;;;24.80;65.30;;;;;;6117253;28;80076;-62
2023/07/26 15:27:31;;;;;;;1.73;1.48;;;24.80;65.30;;;;;;6108898;28;81035;-61
2023/07/26 15:30:32;;;;;;;4.18;1.60;;;24.80;65.50;;;;;;6119835;28;80426;-62
2023/07/26 15:33:32;;;;;;;2.17;1.40;;;24.80;65.00;;;;;;6103763;28;82865;-62
2023/07/26 15:36:33;;;;;;;2.53;1.40;;;24.80;65.10;;;;;;6117876;28;81667;-62